Time;durP1;ratioP1;P1;durP2;ratioP2;P2;SDS_P1;SDS_P2;PMS_P1;PMS_P2;Temp;Humidity;BMP_temperature;BMP_pressure;BME280_temperature;BME280_humidity;BME280_pressure;Samples;Min_cycle;Max_cycle;Signal;HPM_P1;HPM_P2
2023/08/24 00:03:39;;;;;;;7.12;2.90;;;15.30;99.90;;;;;;7294239;32;20257;-56
2023/08/24 00:07:41;;;;;;;12.05;3.25;;;15.30;99.90;;;;;;7292734;32;20182;-56
2023/08/24 00:11:43;;;;;;;4.62;2.45;;;15.30;99.90;;;;;;7296384;32;20258;-56
2023/08/24 00:15:45;;;;;;;6.18;3.53;;;15.20;99.90;;;;;;7294752;32;20213;-56
2023/08/24 00:19:47;;;;;;;8.50;3.62;;;15.10;99.90;;;;;;7299927;32;20128;-55
2023/08/24 00:23:49;;;;;;;6.40;2.92;;;15.10;99.90;;;;;;7290658;32;20244;-56
2023/08/24 00:27:54;;;;;;;9.32;2.65;;;15.10;99.90;;;;;;7294228;32;20181;-56
2023/08/24 00:31:57;;;;;;;5.45;2.90;;;15.10;99.90;;;;;;7297316;32;20100;-56
2023/08/24 00:36:00;;;;;;;12.30;3.28;;;15.00;99.90;;;;;;7232258;32;20104;-56
2023/08/24 00:40:08;;;;;;;6.45;3.15;;;15.20;99.90;;;;;;7286376;32;20205;-56
2023/08/24 00:44:10;;;;;;;7.45;3.20;;;15.10;99.90;;;;;;7241933;32;20104;-56
2023/08/24 00:48:12;;;;;;;5.15;3.10;;;15.10;99.90;;;;;;7297217;32;20112;-56
2023/08/24 00:52:14;;;;;;;7.25;3.00;;;15.10;99.90;;;;;;7293543;32;20132;-55
2023/08/24 00:56:16;;;;;;;7.50;3.47;;;15.00;99.90;;;;;;7292227;32;20203;-55
2023/08/24 01:00:18;;;;;;;9.63;3.08;;;15.00;99.90;;;;;;7289340;32;20108;-57
2023/08/24 01:04:20;;;;;;;4.22;3.20;;;15.00;99.90;;;;;;7293608;32;20141;-55
2023/08/24 01:08:23;;;;;;;10.77;3.50;;;14.90;99.90;;;;;;7292462;32;20131;-55
2023/08/24 01:12:43;;;;;;;9.98;3.42;;;15.00;99.90;;;;;;7277540;32;20226;-56
2023/08/24 01:16:47;;;;;;;9.05;3.53;;;14.90;99.90;;;;;;7283038;32;20350;-56
2023/08/24 01:20:50;;;;;;;5.00;3.30;;;14.90;99.90;;;;;;7288813;32;20183;-56
2023/08/24 01:25:13;;;;;;;8.32;3.37;;;14.90;99.90;;;;;;7284035;32;20513;-56
2023/08/24 01:29:15;;;;;;;6.47;3.40;;;14.80;99.90;;;;;;7289868;32;20271;-57
2023/08/24 01:33:17;;;;;;;7.43;3.30;;;14.80;99.90;;;;;;7293125;32;20166;-56
2023/08/24 01:37:18;;;;;;;9.27;3.22;;;14.90;99.90;;;;;;7214779;32;20099;-58
2023/08/24 01:41:27;;;;;;;6.57;3.03;;;14.80;99.90;;;;;;7284467;32;20233;-56
2023/08/24 01:45:32;;;;;;;14.70;3.58;;;14.90;99.90;;;;;;7249186;32;20581;-56
2023/08/24 01:49:34;;;;;;;7.18;3.55;;;14.80;99.90;;;;;;7294478;32;20269;-57
2023/08/24 01:53:38;;;;;;;9.20;3.12;;;14.90;99.90;;;;;;7289177;32;20449;-57
2023/08/24 01:57:39;;;;;;;9.75;3.45;;;14.80;99.90;;;;;;7288772;32;20213;-56
2023/08/24 02:01:41;;;;;;;6.05;3.65;;;14.80;99.90;;;;;;7290227;32;20195;-56
2023/08/24 02:05:43;;;;;;;6.35;3.58;;;14.70;99.90;;;;;;7292563;32;20127;-56
2023/08/24 02:09:45;;;;;;;7.30;3.50;;;14.70;99.90;;;;;;7291911;32;20483;-56
2023/08/24 02:13:46;;;;;;;7.25;3.87;;;14.70;99.90;;;;;;7295236;32;20437;-57
2023/08/24 02:17:48;;;;;;;8.45;3.83;;;14.70;99.90;;;;;;7297099;32;20122;-56
2023/08/24 02:21:50;;;;;;;10.40;3.50;;;14.60;99.90;;;;;;7302048;32;20116;-56
2023/08/24 02:25:52;;;;;;;6.10;3.10;;;14.70;99.90;;;;;;7292785;32;20219;-55
2023/08/24 02:29:54;;;;;;;9.18;3.53;;;14.70;99.90;;;;;;7293840;32;20211;-58
2023/08/24 02:33:55;;;;;;;5.35;3.40;;;14.60;99.90;;;;;;7293894;32;20220;-56
2023/08/24 02:37:57;;;;;;;9.32;3.70;;;14.70;99.90;;;;;;7294143;32;20187;-56
2023/08/24 02:41:59;;;;;;;10.38;3.72;;;14.70;99.90;;;;;;7298522;32;20115;-58
2023/08/24 02:46:05;;;;;;;10.57;3.62;;;14.70;99.90;;;;;;7288993;32;20107;-56
2023/08/24 02:50:07;;;;;;;6.62;3.47;;;14.60;99.90;;;;;;7302842;32;20111;-55
2023/08/24 02:54:09;;;;;;;5.68;3.67;;;14.60;99.90;;;;;;7295533;32;20235;-56
2023/08/24 02:58:11;;;;;;;6.93;3.60;;;14.60;99.90;;;;;;7297668;32;20111;-56
2023/08/24 03:02:13;;;;;;;7.03;3.45;;;14.70;99.90;;;;;;7289575;32;20519;-56
2023/08/24 03:06:14;;;;;;;5.68;3.40;;;14.70;99.90;;;;;;7291225;32;20128;-56
2023/08/24 03:10:16;;;;;;;7.15;3.55;;;14.70;99.90;;;;;;7294920;32;20247;-55
2023/08/24 03:14:18;;;;;;;8.20;3.87;;;14.70;99.90;;;;;;7297878;32;20123;-56
2023/08/24 03:18:20;;;;;;;7.22;3.47;;;14.80;99.90;;;;;;7289071;32;20127;-56
2023/08/24 03:22:22;;;;;;;9.50;4.50;;;14.90;99.90;;;;;;7294408;32;20517;-56
2023/08/24 03:26:24;;;;;;;7.65;3.47;;;14.80;99.90;;;;;;7278338;32;20097;-57
2023/08/24 03:30:26;;;;;;;7.65;3.80;;;14.80;99.90;;;;;;7297312;32;20263;-56
2023/08/24 03:34:29;;;;;;;5.97;3.70;;;15.00;99.90;;;;;;7280967;32;20104;-56
2023/08/24 03:38:31;;;;;;;8.90;4.03;;;14.90;99.90;;;;;;7292885;32;20112;-56
2023/08/24 03:42:33;;;;;;;6.95;4.05;;;15.00;99.90;;;;;;7291369;32;20154;-56
2023/08/24 03:46:34;;;;;;;6.35;3.75;;;15.00;99.90;;;;;;7294754;32;20222;-57
2023/08/24 03:50:36;;;;;;;8.55;4.40;;;15.10;99.90;;;;;;7280970;32;20194;-57
2023/08/24 03:54:38;;;;;;;10.00;4.07;;;15.10;99.90;;;;;;7292033;32;20112;-57
2023/08/24 03:58:40;;;;;;;9.75;4.18;;;15.20;99.90;;;;;;7290536;32;20226;-57
2023/08/24 04:02:42;;;;;;;6.80;3.95;;;15.20;99.90;;;;;;7291371;32;20255;-56
2023/08/24 04:06:44;;;;;;;6.43;3.83;;;15.30;99.90;;;;;;7298176;32;20242;-56
2023/08/24 04:10:45;;;;;;;6.72;3.62;;;15.40;99.90;;;;;;7291342;32;20122;-57
2023/08/24 04:14:47;;;;;;;5.62;4.18;;;15.50;99.90;;;;;;7291929;32;20126;-56
2023/08/24 04:18:49;;;;;;;10.15;3.92;;;15.60;99.90;;;;;;7289032;32;20542;-56
2023/08/24 04:22:51;;;;;;;8.15;4.35;;;15.60;99.90;;;;;;7299191;32;20100;-56
2023/08/24 04:26:52;;;;;;;7.05;4.45;;;15.60;99.90;;;;;;7291007;32;20162;-57
2023/08/24 04:30:56;;;;;;;8.57;4.55;;;15.70;99.90;;;;;;7290729;32;20631;-56
2023/08/24 04:35:00;;;;;;;6.97;4.47;;;15.70;99.90;;;;;;7258990;32;20514;-55
2023/08/24 04:39:02;;;;;;;9.88;4.82;;;15.80;99.90;;;;;;7288434;32;20186;-56
2023/08/24 04:43:04;;;;;;;8.68;4.78;;;15.80;99.90;;;;;;7295695;32;20213;-56
2023/08/24 04:47:06;;;;;;;7.93;5.22;;;15.80;99.90;;;;;;7290573;32;20612;-57
2023/08/24 04:51:07;;;;;;;9.05;6.15;;;15.90;99.90;;;;;;7292600;32;20458;-58
2023/08/24 04:55:09;;;;;;;11.07;6.93;;;16.00;99.90;;;;;;7293412;32;20195;-56
2023/08/24 04:59:11;;;;;;;11.77;6.68;;;16.00;99.90;;;;;;7281580;32;20431;-57
2023/08/24 05:03:13;;;;;;;14.90;7.03;;;16.10;99.90;;;;;;7284778;32;20215;-58
2023/08/24 05:07:15;;;;;;;10.82;7.35;;;16.20;99.90;;;;;;7287256;32;20150;-57
2023/08/24 05:11:19;;;;;;;12.55;7.40;;;16.30;99.90;;;;;;7271188;32;20774;-57
2023/08/24 05:15:21;;;;;;;14.18;8.48;;;16.40;99.90;;;;;;7294639;32;20285;-57
2023/08/24 05:19:22;;;;;;;13.30;7.90;;;16.40;99.90;;;;;;7294823;32;20115;-57
2023/08/24 05:23:24;;;;;;;10.07;7.40;;;16.40;99.90;;;;;;7294424;32;20569;-56
2023/08/24 05:27:26;;;;;;;12.00;8.00;;;16.60;99.90;;;;;;7292729;32;20298;-57
2023/08/24 05:31:28;;;;;;;10.75;6.97;;;16.60;99.90;;;;;;7263214;32;20276;-59
2023/08/24 05:35:29;;;;;;;11.35;7.87;;;16.60;99.90;;;;;;7294092;32;20100;-59
2023/08/24 05:39:31;;;;;;;12.50;7.45;;;16.60;99.90;;;;;;7275680;32;20175;-59
2023/08/24 05:43:33;;;;;;;12.32;7.85;;;16.70;99.90;;;;;;7294569;32;20146;-58
2023/08/24 05:47:35;;;;;;;13.43;7.28;;;16.80;99.90;;;;;;7297938;32;20577;-59
2023/08/24 05:51:37;;;;;;;12.10;7.40;;;16.90;99.90;;;;;;7290115;32;20280;-57
2023/08/24 05:55:38;;;;;;;18.23;8.20;;;16.90;99.90;;;;;;7266958;32;20493;-58
2023/08/24 05:59:40;;;;;;;8.43;6.57;;;16.90;99.90;;;;;;7290724;32;20096;-58
2023/08/24 06:03:42;;;;;;;9.80;7.00;;;17.00;99.90;;;;;;7286182;32;20363;-57
2023/08/24 06:07:45;;;;;;;10.48;7.20;;;17.10;99.90;;;;;;7270168;32;20296;-56
2023/08/24 06:11:47;;;;;;;10.48;7.07;;;17.20;99.90;;;;;;7289911;32;20233;-56
2023/08/24 06:15:49;;;;;;;10.20;6.82;;;17.20;99.90;;;;;;7287715;32;20433;-57
2023/08/24 06:19:50;;;;;;;9.80;6.97;;;17.30;99.90;;;;;;7295548;32;20214;-56
2023/08/24 06:23:52;;;;;;;12.88;7.82;;;17.40;99.90;;;;;;7279351;32;20198;-57
2023/08/24 06:27:54;;;;;;;10.40;6.68;;;17.50;99.90;;;;;;7246936;32;20096;-57
2023/08/24 06:31:56;;;;;;;9.02;6.57;;;17.60;99.90;;;;;;7296645;32;20356;-57
2023/08/24 06:35:58;;;;;;;8.77;6.00;;;17.60;99.90;;;;;;7291545;32;20108;-56
2023/08/24 06:40:00;;;;;;;7.55;6.32;;;17.70;99.90;;;;;;7292415;32;20572;-57
2023/08/24 06:44:02;;;;;;;10.45;6.57;;;17.80;99.90;;;;;;7282734;32;20104;-56
2023/08/24 06:48:06;;;;;;;10.48;6.75;;;17.80;99.90;;;;;;7296511;32;20119;-56
2023/08/24 06:52:08;;;;;;;9.10;6.28;;;18.00;99.90;;;;;;7295147;32;20136;-56
2023/08/24 06:56:10;;;;;;;9.63;6.68;;;18.20;99.90;;;;;;7284266;32;20104;-56
2023/08/24 07:00:14;;;;;;;8.43;6.57;;;18.30;99.90;;;;;;7284877;32;20127;-57
2023/08/24 07:04:17;;;;;;;13.40;5.95;;;18.40;99.90;;;;;;7293501;32;20171;-56
2023/08/24 07:08:19;;;;;;;9.30;5.25;;;18.60;99.90;;;;;;7225500;32;20221;-57
2023/08/24 07:12:20;;;;;;;7.78;5.62;;;18.60;99.90;;;;;;7274144;32;20971;-58
2023/08/24 07:16:22;;;;;;;7.15;4.82;;;18.80;99.90;;;;;;7285001;32;20180;-57
2023/08/24 07:20:24;;;;;;;6.95;4.90;;;18.80;99.90;;;;;;7291973;32;20229;-57
2023/08/24 07:24:26;;;;;;;7.43;4.32;;;18.90;99.90;;;;;;7285241;32;20126;-57
2023/08/24 07:28:45;;;;;;;8.23;4.90;;;19.00;99.90;;;;;;7227462;32;20183;-56
2023/08/24 07:32:47;;;;;;;5.05;3.92;;;19.10;99.90;;;;;;7297233;32;20602;-57
2023/08/24 07:36:49;;;;;;;6.80;3.67;;;19.20;99.90;;;;;;7298576;32;20281;-58
2023/08/24 07:40:51;;;;;;;6.05;3.12;;;19.30;99.90;;;;;;7295086;32;20150;-56
2023/08/24 07:44:53;;;;;;;5.78;3.15;;;19.40;99.90;;;;;;7232467;32;20226;-57
2023/08/24 07:48:56;;;;;;;7.05;2.90;;;19.60;99.90;;;;;;7296514;32;20514;-58
2023/08/24 07:52:57;;;;;;;6.22;2.80;;;19.60;99.90;;;;;;7266676;32;20708;-57
2023/08/24 07:57:01;;;;;;;5.25;3.00;;;19.80;99.90;;;;;;7255081;32;20177;-57
2023/08/24 08:01:04;;;;;;;4.32;2.92;;;19.90;99.90;;;;;;7276502;32;20105;-57
2023/08/24 08:05:13;;;;;;;5.28;2.33;;;20.00;99.90;;;;;;7288285;32;20258;-57
2023/08/24 08:09:16;;;;;;;6.50;2.62;;;20.30;99.90;;;;;;7291682;32;21480;-57
2023/08/24 08:13:18;;;;;;;4.95;1.98;;;20.50;99.90;;;;;;7281359;32;20104;-57
2023/08/24 08:17:20;;;;;;;5.80;2.15;;;20.60;99.90;;;;;;7280280;32;20234;-57
2023/08/24 08:21:23;;;;;;;4.00;2.30;;;20.80;99.90;;;;;;7288687;32;20195;-57
2023/08/24 08:25:24;;;;;;;5.30;2.47;;;21.10;99.90;;;;;;7295075;32;20127;-57
2023/08/24 08:29:26;;;;;;;3.78;2.28;;;21.30;99.90;;;;;;7293777;32;20790;-58
2023/08/24 08:33:28;;;;;;;5.05;2.92;;;21.60;99.90;;;;;;7271312;32;20104;-57
2023/08/24 08:37:33;;;;;;;4.32;2.15;;;21.70;99.90;;;;;;7275435;32;20497;-57
2023/08/24 08:41:43;;;;;;;3.25;2.08;;;22.20;99.90;;;;;;7264896;32;20138;-57
2023/08/24 08:45:45;;;;;;;6.25;2.20;;;22.70;99.90;;;;;;7252804;32;20121;-58
2023/08/24 08:49:48;;;;;;;4.60;2.25;;;23.50;99.90;;;;;;7281211;32;20222;-57
2023/08/24 08:53:50;;;;;;;2.87;2.08;;;23.90;99.90;;;;;;7292597;32;20603;-57
2023/08/24 08:57:59;;;;;;;4.82;1.83;;;24.10;99.90;;;;;;7288047;32;20552;-57
2023/08/24 09:02:02;;;;;;;4.28;1.70;;;24.30;99.90;;;;;;7289316;32;20564;-57
2023/08/24 09:06:03;;;;;;;3.08;1.80;;;24.20;99.90;;;;;;7273519;32;20450;-56
2023/08/24 09:10:07;;;;;;;2.22;1.62;;;24.70;99.90;;;;;;7296625;32;20127;-58
2023/08/24 09:14:09;;;;;;;6.43;1.75;;;25.70;99.90;;;;;;7221404;32;20254;-58
2023/08/24 09:18:11;;;;;;;3.45;1.90;;;26.80;99.90;;;;;;7293691;32;20431;-57
2023/08/24 09:22:12;;;;;;;6.10;1.73;;;27.50;99.90;;;;;;7292947;32;20108;-58
2023/08/24 09:26:14;;;;;;;7.60;1.80;;;27.80;99.90;;;;;;7295386;32;20263;-58
2023/08/24 09:30:16;;;;;;;4.57;1.85;;;27.40;99.90;;;;;;7303086;32;20446;-57
2023/08/24 09:34:26;;;;;;;3.10;1.83;;;27.20;99.90;;;;;;7301680;32;20130;-57
2023/08/24 09:38:28;;;;;;;3.33;1.70;;;27.10;99.90;;;;;;7299124;32;20175;-58
2023/08/24 09:42:36;;;;;;;4.85;1.92;;;26.80;99.90;;;;;;7241857;32;20107;-57
2023/08/24 09:46:39;;;;;;;2.85;1.77;;;26.80;99.90;;;;;;7295151;32;20144;-58
2023/08/24 09:50:41;;;;;;;3.37;1.83;;;27.00;99.90;;;;;;7290773;32;20288;-56
2023/08/24 09:54:45;;;;;;;3.67;1.92;;;27.30;99.90;;;;;;7294399;32;20219;-57
2023/08/24 09:58:49;;;;;;;4.50;2.05;;;27.50;99.90;;;;;;7297247;32;20161;-56
2023/08/24 10:02:55;;;;;;;6.22;2.10;;;27.70;99.90;;;;;;7275106;32;20629;-58
2023/08/24 10:07:15;;;;;;;5.35;2.10;;;27.40;99.90;;;;;;7300979;32;20489;-58
2023/08/24 10:11:23;;;;;;;4.07;1.75;;;27.60;99.90;;;;;;7281640;32;20253;-58
2023/08/24 10:15:26;;;;;;;3.05;2.05;;;27.70;99.90;;;;;;7272441;32;20136;-57
2023/08/24 10:19:28;;;;;;;3.58;1.70;;;27.80;99.90;;;;;;7281430;32;20660;-57
2023/08/24 10:23:31;;;;;;;3.90;1.90;;;27.90;99.90;;;;;;7277779;32;20103;-58
2023/08/24 10:27:33;;;;;;;5.07;1.90;;;27.90;99.90;;;;;;7282699;32;20104;-57
2023/08/24 10:31:36;;;;;;;3.83;1.90;;;27.90;99.90;;;;;;7300516;32;20112;-59
2023/08/24 10:35:39;;;;;;;3.92;2.15;;;27.80;99.90;;;;;;7304081;32;20107;-58
2023/08/24 10:39:46;;;;;;;6.32;1.70;;;27.70;99.90;;;;;;7282567;32;20134;-57
2023/08/24 10:43:51;;;;;;;5.18;2.55;;;27.70;99.90;;;;;;7296462;32;20104;-57
2023/08/24 10:47:53;;;;;;;3.45;2.10;;;27.50;99.90;;;;;;7298794;32;20254;-58
2023/08/24 10:51:56;;;;;;;3.90;2.10;;;27.30;99.90;;;;;;7283717;32;20681;-58
2023/08/24 10:56:14;;;;;;;6.18;2.37;;;27.20;99.90;;;;;;7276571;32;20127;-56
2023/08/24 11:00:22;;;;;;;4.68;2.20;;;27.20;99.90;;;;;;7287528;32;20163;-57
2023/08/24 11:04:25;;;;;;;6.28;2.40;;;27.10;99.90;;;;;;7291460;32;21669;-57
2023/08/24 11:08:46;;;;;;;4.50;2.03;;;27.00;99.90;;;;;;7293281;32;20136;-58
2023/08/24 11:13:03;;;;;;;4.03;1.90;;;27.20;99.90;;;;;;7282264;32;20224;-57
2023/08/24 11:17:19;;;;;;;5.57;2.20;;;27.10;99.90;;;;;;7292595;32;20138;-58
2023/08/24 11:21:22;;;;;;;3.30;1.98;;;27.10;99.90;;;;;;7282666;32;20331;-57
2023/08/24 11:25:24;;;;;;;6.40;2.22;;;27.00;99.90;;;;;;7288266;32;20105;-58
2023/08/24 11:29:26;;;;;;;5.82;2.17;;;26.90;99.90;;;;;;7301244;32;20266;-57
2023/08/24 11:33:35;;;;;;;3.85;1.98;;;26.80;99.90;;;;;;7247455;32;20111;-58
2023/08/24 11:37:37;;;;;;;4.15;2.45;;;26.80;99.90;;;;;;7296327;32;20160;-58
2023/08/24 11:41:38;;;;;;;5.75;2.33;;;26.50;99.90;;;;;;7290817;32;20663;-59
2023/08/24 11:45:42;;;;;;;5.72;2.33;;;26.40;99.90;;;;;;7270984;32;20143;-57
2023/08/24 11:49:44;;;;;;;4.65;2.35;;;26.40;99.90;;;;;;7228197;32;20206;-59
2023/08/24 11:53:46;;;;;;;5.22;2.08;;;26.40;99.90;;;;;;7294628;32;20227;-58
2023/08/24 11:57:48;;;;;;;4.37;2.10;;;26.30;99.90;;;;;;7294236;32;20208;-58
2023/08/24 12:01:52;;;;;;;3.37;2.05;;;26.30;99.90;;;;;;7287519;32;20176;-57
2023/08/24 12:05:59;;;;;;;7.68;2.67;;;26.30;99.90;;;;;;7293832;32;20091;-57
2023/08/24 12:10:02;;;;;;;3.83;2.30;;;26.20;99.90;;;;;;7296338;32;20652;-58
2023/08/24 12:14:04;;;;;;;7.60;2.53;;;26.30;99.90;;;;;;7289760;32;20132;-57
2023/08/24 12:18:13;;;;;;;7.47;2.25;;;26.20;99.90;;;;;;7294105;32;20230;-57
2023/08/24 12:22:16;;;;;;;8.48;2.50;;;26.30;99.90;;;;;;7296695;32;20111;-58
2023/08/24 12:26:18;;;;;;;8.02;2.65;;;26.20;99.90;;;;;;7302304;32;20189;-57
2023/08/24 12:30:20;;;;;;;3.45;2.15;;;25.90;99.90;;;;;;7291760;32;20707;-57
2023/08/24 12:34:23;;;;;;;5.53;2.50;;;25.80;99.90;;;;;;7264951;32;20138;-58
2023/08/24 12:38:27;;;;;;;5.72;2.58;;;25.50;99.90;;;;;;7290866;32;20243;-57
2023/08/24 12:42:28;;;;;;;6.07;2.90;;;25.30;99.90;;;;;;7292901;32;20202;-58
2023/08/24 12:46:31;;;;;;;6.78;3.15;;;25.00;99.90;;;;;;7287676;32;21084;-57
2023/08/24 12:50:34;;;;;;;7.78;3.15;;;24.60;99.90;;;;;;7292614;32;20235;-58
2023/08/24 12:54:35;;;;;;;12.02;3.65;;;24.60;99.90;;;;;;7292894;32;20525;-58
2023/08/24 12:58:38;;;;;;;8.48;2.60;;;24.30;99.90;;;;;;7280228;32;20171;-58
2023/08/24 13:02:39;;;;;;;10.07;3.15;;;24.30;99.90;;;;;;7294710;32;20217;-58
2023/08/24 13:06:41;;;;;;;7.45;2.80;;;24.30;99.90;;;;;;7287178;32;20277;-58
2023/08/24 13:10:43;;;;;;;5.00;2.58;;;24.40;99.90;;;;;;7286434;32;20103;-58
2023/08/24 13:14:45;;;;;;;5.03;2.75;;;24.40;99.90;;;;;;7274434;32;20190;-58
2023/08/24 13:18:47;;;;;;;5.00;2.95;;;24.50;99.90;;;;;;7260454;32;20167;-58
2023/08/24 13:22:49;;;;;;;7.47;2.95;;;24.60;99.90;;;;;;7297724;32;20194;-59
2023/08/24 13:26:51;;;;;;;11.90;2.70;;;24.60;99.90;;;;;;7292097;32;20282;-58
2023/08/24 13:30:52;;;;;;;6.07;2.60;;;24.60;99.90;;;;;;7248036;32;21798;-58
2023/08/24 13:34:55;;;;;;;8.18;3.37;;;24.50;99.90;;;;;;7261862;32;20553;-57
2023/08/24 13:38:57;;;;;;;7.97;2.85;;;24.50;99.90;;;;;;7289685;32;20215;-57
2023/08/24 13:42:59;;;;;;;10.98;2.87;;;24.40;99.90;;;;;;7291911;32;20389;-60
2023/08/24 13:47:01;;;;;;;9.85;3.00;;;24.40;99.90;;;;;;7234581;32;20243;-58
2023/08/24 13:51:02;;;;;;;5.28;2.72;;;24.40;99.90;;;;;;7297071;32;20458;-58
2023/08/24 13:55:05;;;;;;;11.55;3.60;;;24.20;99.90;;;;;;7278038;32;20108;-59
2023/08/24 13:59:18;;;;;;;8.82;3.58;;;24.30;99.90;;;;;;7297495;32;20209;-57
2023/08/24 14:03:19;;;;;;;8.23;3.47;;;24.40;99.90;;;;;;7263427;32;20682;-58
2023/08/24 14:07:21;;;;;;;7.60;3.30;;;24.40;99.90;;;;;;7288278;32;20482;-58
2023/08/24 14:11:23;;;;;;;9.35;3.47;;;24.40;99.90;;;;;;7299124;32;20122;-58
2023/08/24 14:15:25;;;;;;;8.30;3.67;;;24.30;99.90;;;;;;7298840;32;20244;-58
2023/08/24 14:19:27;;;;;;;5.70;3.05;;;24.20;99.90;;;;;;7245045;32;20218;-58
2023/08/24 14:23:29;;;;;;;8.70;3.53;;;24.10;99.90;;;;;;7302511;32;20434;-57
2023/08/24 14:27:30;;;;;;;6.78;2.87;;;24.10;99.90;;;;;;7299424;32;20129;-57
2023/08/24 14:31:32;;;;;;;9.98;4.00;;;24.10;99.90;;;;;;7296562;32;20175;-57
2023/08/24 14:35:34;;;;;;;9.65;3.03;;;24.10;99.90;;;;;;7300365;32;20155;-57
2023/08/24 14:39:36;;;;;;;9.55;3.37;;;24.10;99.90;;;;;;7296425;32;20199;-57
2023/08/24 14:43:41;;;;;;;7.00;3.20;;;23.90;99.90;;;;;;7292825;32;20112;-57
2023/08/24 14:47:42;;;;;;;7.87;2.60;;;23.80;99.90;;;;;;7296043;32;20134;-58
2023/08/24 14:51:45;;;;;;;7.57;3.17;;;23.70;99.90;;;;;;7295393;32;20174;-57
2023/08/24 14:55:47;;;;;;;5.72;2.92;;;23.60;99.90;;;;;;7299840;32;20263;-58
2023/08/24 14:59:49;;;;;;;7.93;2.90;;;23.50;99.90;;;;;;7292359;32;20138;-59
2023/08/24 15:03:51;;;;;;;8.00;2.97;;;23.40;99.90;;;;;;7297251;32;20485;-57
2023/08/24 15:07:53;;;;;;;7.43;2.92;;;23.30;99.90;;;;;;7301374;32;20195;-58
2023/08/24 15:11:55;;;;;;;7.05;3.08;;;23.20;99.90;;;;;;7298599;32;20116;-57
2023/08/24 15:15:58;;;;;;;5.90;2.65;;;23.00;99.90;;;;;;7290979;32;20132;-57
2023/08/24 15:20:00;;;;;;;9.15;3.25;;;22.90;99.90;;;;;;7297572;32;20209;-57
2023/08/24 15:24:02;;;;;;;6.40;2.85;;;22.70;99.90;;;;;;7298262;32;20876;-57
2023/08/24 15:28:04;;;;;;;4.37;2.47;;;22.60;99.90;;;;;;7296420;32;20154;-57
2023/08/24 15:32:06;;;;;;;7.50;2.65;;;22.50;99.90;;;;;;7297293;32;20485;-58
2023/08/24 15:36:08;;;;;;;11.25;2.97;;;22.30;99.90;;;;;;7296432;32;20524;-56
2023/08/24 15:40:10;;;;;;;7.15;2.58;;;22.20;99.90;;;;;;7296668;32;20644;-57
2023/08/24 15:44:12;;;;;;;6.60;2.50;;;22.10;99.90;;;;;;7299276;32;20908;-57
2023/08/24 15:48:13;;;;;;;5.53;2.55;;;22.00;99.90;;;;;;7284917;32;20557;-57
2023/08/24 15:52:15;;;;;;;5.18;2.08;;;21.80;99.90;;;;;;7282115;32;20104;-57
2023/08/24 15:56:17;;;;;;;6.10;2.10;;;21.50;99.90;;;;;;7297973;32;20128;-57
2023/08/24 16:00:19;;;;;;;5.00;2.35;;;21.50;99.90;;;;;;7298401;32;20158;-57
2023/08/24 16:04:20;;;;;;;8.50;3.03;;;21.30;99.90;;;;;;7296080;32;20635;-57
2023/08/24 16:08:22;;;;;;;4.22;2.58;;;21.20;99.90;;;;;;7293164;32;20116;-58
2023/08/24 16:12:24;;;;;;;9.40;3.03;;;21.20;99.90;;;;;;7290090;32;20534;-57
2023/08/24 16:16:28;;;;;;;6.00;2.67;;;21.10;99.90;;;;;;7289630;32;20115;-58
2023/08/24 16:20:31;;;;;;;6.30;2.30;;;21.00;99.90;;;;;;7291019;32;20198;-59
2023/08/24 16:24:33;;;;;;;6.90;2.47;;;20.90;99.90;;;;;;7301374;32;20522;-56
2023/08/24 16:28:34;;;;;;;8.40;4.30;;;21.00;99.90;;;;;;7296839;32;20127;-57
2023/08/24 16:32:36;;;;;;;7.47;2.80;;;21.00;99.90;;;;;;7293599;32;20096;-57
2023/08/24 16:36:40;;;;;;;6.00;2.37;;;20.90;99.90;;;;;;7288659;32;20158;-57
2023/08/24 16:40:42;;;;;;;7.43;2.42;;;21.00;99.90;;;;;;7291869;32;21053;-57
2023/08/24 16:44:45;;;;;;;6.80;2.28;;;20.90;99.90;;;;;;7292872;32;20189;-58
2023/08/24 16:48:47;;;;;;;6.85;2.50;;;20.90;99.90;;;;;;7297986;32;20552;-57
2023/08/24 16:52:49;;;;;;;4.90;2.33;;;20.80;99.90;;;;;;7297779;32;20116;-58
2023/08/24 16:56:50;;;;;;;4.18;1.80;;;20.90;99.90;;;;;;7297951;32;20532;-56
2023/08/24 17:00:52;;;;;;;4.20;2.10;;;20.90;99.90;;;;;;7300595;32;20167;-57
2023/08/24 17:04:54;;;;;;;6.70;2.00;;;21.00;99.90;;;;;;7301808;32;20301;-56
2023/08/24 17:08:55;;;;;;;5.75;2.17;;;20.90;99.90;;;;;;7296023;32;20478;-57
2023/08/24 17:12:58;;;;;;;4.20;1.75;;;21.10;99.90;;;;;;7298506;32;20186;-58
2023/08/24 17:17:00;;;;;;;3.85;1.80;;;21.00;99.90;;;;;;7291710;32;20254;-56
2023/08/24 17:21:04;;;;;;;7.82;2.70;;;20.80;99.90;;;;;;7297678;32;20112;-58
2023/08/24 17:25:07;;;;;;;4.20;1.50;;;20.70;99.90;;;;;;7294105;32;20473;-58
2023/08/24 17:29:09;;;;;;;8.73;2.30;;;20.70;99.90;;;;;;7296542;32;20656;-56
2023/08/24 17:33:11;;;;;;;5.25;1.85;;;20.70;99.90;;;;;;7300428;32;20712;-57
2023/08/24 17:37:13;;;;;;;4.45;1.95;;;20.80;99.90;;;;;;7292599;32;20112;-57
2023/08/24 17:41:15;;;;;;;4.05;1.87;;;20.80;99.90;;;;;;7303786;32;20140;-57
2023/08/24 17:45:21;;;;;;;4.15;1.87;;;20.70;99.90;;;;;;7302299;32;20146;-57
2023/08/24 17:49:23;;;;;;;3.20;1.90;;;20.70;99.90;;;;;;7297710;32;20210;-57
2023/08/24 17:53:29;;;;;;;5.82;1.67;;;20.70;99.90;;;;;;7298590;32;20151;-58
2023/08/24 17:57:31;;;;;;;7.37;2.17;;;20.60;99.90;;;;;;7299411;32;20147;-58
2023/08/24 18:01:33;;;;;;;4.25;2.03;;;20.60;99.90;;;;;;7297964;32;20108;-58
2023/08/24 18:05:34;;;;;;;6.20;1.45;;;20.50;99.90;;;;;;7302738;32;20135;-56
2023/08/24 18:09:36;;;;;;;4.90;1.75;;;20.50;99.90;;;;;;7298584;32;20643;-57
2023/08/24 18:13:38;;;;;;;9.30;1.90;;;20.30;99.90;;;;;;7297099;32;20112;-58
2023/08/24 18:17:40;;;;;;;2.65;1.58;;;20.40;99.90;;;;;;7300672;32;20225;-56
2023/08/24 18:21:42;;;;;;;3.92;1.52;;;20.30;99.90;;;;;;7305536;32;20112;-56
2023/08/24 18:25:43;;;;;;;6.37;1.77;;;20.30;99.90;;;;;;7294801;32;20170;-57
2023/08/24 18:29:45;;;;;;;3.33;1.50;;;20.30;99.90;;;;;;7299488;32;20810;-57
2023/08/24 18:33:47;;;;;;;4.25;1.80;;;20.20;99.90;;;;;;7294764;32;20594;-57
2023/08/24 18:37:48;;;;;;;3.10;1.70;;;20.10;99.90;;;;;;7302711;32;20116;-57
2023/08/24 18:41:50;;;;;;;2.33;1.37;;;20.00;99.90;;;;;;7280090;32;22258;-57
2023/08/24 18:45:57;;;;;;;4.18;1.90;;;19.90;99.90;;;;;;7293960;32;20112;-57
2023/08/24 18:49:59;;;;;;;6.80;1.73;;;19.90;99.90;;;;;;7305235;32;20509;-56
2023/08/24 18:54:01;;;;;;;4.50;1.92;;;19.80;99.90;;;;;;7302842;32;20521;-57
2023/08/24 18:58:03;;;;;;;5.43;1.90;;;19.80;99.90;;;;;;7300623;32;20793;-56
2023/08/24 19:02:04;;;;;;;5.28;1.75;;;19.70;99.90;;;;;;7298383;32;20238;-56
2023/08/24 19:06:06;;;;;;;5.10;1.87;;;19.70;99.90;;;;;;7302102;32;20116;-56
2023/08/24 19:10:26;;;;;;;7.05;2.30;;;19.60;99.90;;;;;;7296797;32;20443;-56
2023/08/24 19:14:31;;;;;;;3.92;2.00;;;19.50;99.90;;;;;;7294476;32;20205;-55
2023/08/24 19:18:32;;;;;;;4.75;2.10;;;19.40;99.90;;;;;;7301038;32;20177;-56
2023/08/24 19:22:34;;;;;;;8.57;2.47;;;19.20;99.90;;;;;;7297972;32;20171;-57
2023/08/24 19:26:36;;;;;;;3.78;2.28;;;19.20;99.90;;;;;;7298136;32;20161;-57
2023/08/24 19:30:41;;;;;;;4.60;1.77;;;19.10;99.90;;;;;;7295638;32;20487;-57
2023/08/24 19:34:42;;;;;;;3.87;1.70;;;18.90;99.90;;;;;;7297954;32;20235;-55
2023/08/24 19:38:44;;;;;;;3.90;1.83;;;18.90;99.90;;;;;;7296217;32;20200;-56
2023/08/24 19:42:46;;;;;;;6.20;2.03;;;18.80;99.90;;;;;;7294693;32;20116;-57
2023/08/24 19:46:48;;;;;;;4.60;1.80;;;18.70;99.90;;;;;;7294230;32;20138;-56
2023/08/24 19:50:50;;;;;;;5.90;2.47;;;18.60;99.90;;;;;;7299588;32;20159;-58
2023/08/24 19:54:52;;;;;;;7.47;2.10;;;18.60;99.90;;;;;;7299211;32;20255;-56
2023/08/24 19:58:53;;;;;;;8.18;2.30;;;18.50;99.90;;;;;;7301747;32;20112;-56
2023/08/24 20:02:55;;;;;;;6.47;2.53;;;18.30;99.90;;;;;;7301142;32;20161;-56
2023/08/24 20:06:57;;;;;;;6.20;2.90;;;18.30;99.90;;;;;;7299007;32;20541;-56
2023/08/24 20:11:00;;;;;;;7.15;2.53;;;18.30;99.90;;;;;;7301850;32;20511;-56
2023/08/24 20:15:02;;;;;;;9.15;2.30;;;18.30;99.90;;;;;;7302236;32;20139;-55
2023/08/24 20:19:04;;;;;;;6.00;2.40;;;18.10;99.90;;;;;;7298075;32;20111;-56
2023/08/24 20:23:06;;;;;;;4.28;2.22;;;18.10;99.90;;;;;;7296839;32;20104;-57
2023/08/24 20:27:08;;;;;;;6.47;2.50;;;18.00;99.90;;;;;;7301992;32;20130;-55
2023/08/24 20:31:10;;;;;;;9.52;2.60;;;18.00;99.90;;;;;;7298091;32;20211;-55
2023/08/24 20:35:12;;;;;;;5.45;2.12;;;18.00;99.90;;;;;;7296564;32;20123;-56
2023/08/24 20:39:13;;;;;;;5.47;2.47;;;17.90;99.90;;;;;;7293113;32;20157;-56
2023/08/24 20:43:15;;;;;;;6.87;2.80;;;17.90;99.90;;;;;;7300326;32;20116;-57
2023/08/24 20:47:18;;;;;;;8.38;2.95;;;17.90;99.90;;;;;;7298025;32;20205;-56
2023/08/24 20:51:20;;;;;;;6.50;2.80;;;17.90;99.90;;;;;;7298244;32;20127;-56
2023/08/24 20:55:22;;;;;;;6.28;2.15;;;17.90;99.90;;;;;;7294642;32;20222;-56
2023/08/24 20:59:24;;;;;;;4.45;2.22;;;17.90;99.90;;;;;;7302256;32;20275;-56
2023/08/24 21:03:26;;;;;;;5.57;2.72;;;17.90;99.90;;;;;;7301295;32;20543;-56